createdAt,value
2019-04-16T00:01:11.282Z,24.90
2019-04-16T00:06:36.801Z,24.50
2019-04-16T00:12:06.786Z,21.30
2019-04-16T00:17:13.151Z,24.00
2019-04-16T00:22:31.073Z,24.60
2019-04-16T00:27:35.346Z,23.23
2019-04-16T00:32:42.564Z,25.27
2019-04-16T00:37:51.379Z,24.50
2019-04-16T00:42:53.947Z,23.70
2019-04-16T00:47:58.953Z,25.10
2019-04-16T00:53:07.617Z,25.27
2019-04-16T00:58:10.244Z,29.10
2019-04-16T01:03:15.452Z,22.60
2019-04-16T01:08:21.382Z,23.87
2019-04-16T01:13:26.338Z,25.23
2019-04-16T01:18:31.350Z,23.60
2019-04-16T01:23:36.374Z,26.17
2019-04-16T01:28:48.064Z,23.80
2019-04-16T01:34:10.426Z,20.30
2019-04-16T01:39:18.242Z,23.47
2019-04-16T01:44:23.453Z,24.67
2019-04-16T01:49:28.510Z,24.73
2019-04-16T01:54:33.332Z,21.00
2019-04-16T01:59:38.384Z,28.33
2019-04-16T02:04:43.331Z,26.60
2019-04-16T02:09:49.244Z,30.40
2019-04-16T02:14:54.134Z,24.43
2019-04-16T02:20:02.000Z,26.53
2019-04-16T02:25:06.230Z,26.27
2019-04-16T02:30:11.322Z,27.10
2019-04-16T02:35:16.172Z,26.33
2019-04-16T02:40:20.964Z,25.50
2019-04-16T02:45:25.128Z,29.00
2019-04-16T02:51:06.893Z,23.83
2019-04-16T02:56:31.240Z,27.83
2019-04-16T03:01:49.340Z,25.07
2019-04-16T03:06:54.232Z,32.83
2019-04-16T03:11:58.349Z,25.50
2019-04-16T03:17:18.660Z,24.33
2019-04-16T03:22:22.897Z,27.10
2019-04-16T03:27:27.234Z,23.47
2019-04-16T03:32:35.392Z,25.90
2019-04-16T03:37:40.115Z,27.87
2019-04-16T03:42:45.162Z,28.20
2019-04-16T03:47:51.424Z,25.23
2019-04-16T03:52:56.804Z,26.83
2019-04-16T03:58:05.145Z,24.97
2019-04-16T04:03:09.953Z,25.03
2019-04-16T04:08:17.769Z,26.97
2019-04-16T04:13:23.946Z,24.53
2019-04-16T04:18:29.082Z,23.60
2019-04-16T04:23:34.232Z,24.80
2019-04-16T04:28:39.705Z,30.60
2019-04-16T04:33:45.001Z,28.10
2019-04-16T04:38:49.972Z,25.23
2019-04-16T04:43:54.822Z,26.30
2019-04-16T04:49:00.304Z,29.53
2019-04-16T04:54:06.788Z,25.23
2019-04-16T04:59:12.217Z,25.93
2019-04-16T05:04:37.834Z,26.27
2019-04-16T05:09:42.711Z,23.30
2019-04-16T05:14:57.530Z,29.90
2019-04-16T05:20:01.418Z,29.20
2019-04-16T05:25:09.053Z,33.17
2019-04-16T05:30:14.495Z,27.90
2019-04-16T05:35:19.867Z,26.70
2019-04-16T05:40:28.169Z,33.13
2019-04-16T05:45:34.569Z,25.70
2019-04-16T05:50:40.637Z,24.23
2019-04-16T05:56:09.447Z,26.40
2019-04-16T06:01:42.460Z,26.77
2019-04-16T06:06:46.012Z,26.40
2019-04-16T06:11:50.743Z,40.20
2019-04-16T06:17:04.088Z,30.30
2019-04-16T06:22:43.604Z,24.73
2019-04-16T06:28:19.134Z,29.40
2019-04-16T06:33:31.092Z,27.97
2019-04-16T06:38:45.271Z,24.33
2019-04-16T06:43:52.138Z,29.77
2019-04-16T06:49:17.642Z,23.50
2019-04-16T06:54:41.105Z,26.50
2019-04-16T07:00:02.518Z,24.43
2019-04-16T07:05:33.030Z,25.67
2019-04-16T07:10:48.310Z,27.03
2019-04-16T07:15:56.988Z,25.80
2019-04-16T07:21:02.327Z,25.63
2019-04-16T07:26:07.373Z,22.97
2019-04-16T07:31:32.699Z,23.03
2019-04-16T07:36:31.977Z,32.03
2019-04-16T07:42:07.787Z,25.50
2019-04-16T07:47:21.846Z,27.83
2019-04-16T07:52:51.271Z,26.90
2019-04-16T07:57:56.364Z,25.37
2019-04-16T08:03:02.189Z,27.80
2019-04-16T08:08:08.431Z,25.47
2019-04-16T08:13:22.593Z,24.30
2019-04-16T08:18:28.049Z,25.70
2019-04-16T08:23:42.515Z,26.13
2019-04-16T08:28:47.528Z,25.83
2019-04-16T08:33:52.788Z,23.30
2019-04-16T08:38:57.974Z,26.20
2019-04-16T08:44:04.397Z,27.10
2019-04-16T08:49:09.886Z,26.73
2019-04-16T08:54:17.827Z,30.57
2019-04-16T08:59:24.788Z,27.33
2019-04-16T09:04:34.217Z,26.77
2019-04-16T09:09:56.990Z,26.80
2019-04-16T09:15:00.015Z,25.93
2019-04-16T09:20:09.840Z,26.00
2019-04-16T09:25:34.304Z,26.97
2019-04-16T09:30:56.657Z,25.10
2019-04-16T09:36:20.030Z,28.00
2019-04-16T09:41:34.868Z,25.53
2019-04-16T09:46:50.901Z,28.37
2019-04-16T09:51:45.775Z,24.63
2019-04-16T09:56:50.416Z,26.57
2019-04-16T10:02:02.540Z,26.67
2019-04-16T10:07:06.919Z,22.17
2019-04-16T10:12:11.415Z,25.43
2019-04-16T10:17:15.805Z,25.23
2019-04-16T10:22:19.235Z,27.00
2019-04-16T10:27:36.937Z,27.80
2019-04-16T10:32:42.122Z,26.67
2019-04-16T10:37:47.396Z,30.70
2019-04-16T10:43:11.249Z,27.20
2019-04-16T10:48:25.420Z,25.47
2019-04-16T10:53:50.540Z,28.97
2019-04-16T10:59:08.992Z,29.67
2019-04-16T11:04:43.006Z,27.80
2019-04-16T11:09:45.638Z,29.40
2019-04-16T11:14:51.804Z,33.33
2019-04-16T11:19:59.917Z,28.60
2019-04-16T11:25:05.869Z,27.33
2019-04-16T11:30:22.421Z,28.60
2019-04-16T11:35:28.671Z,28.17
2019-04-16T11:40:33.974Z,33.53
2019-04-16T11:45:39.166Z,27.17
2019-04-16T11:50:43.913Z,26.53
2019-04-16T11:55:49.417Z,26.57
2019-04-16T12:01:08.992Z,29.03
2019-04-16T12:06:29.479Z,25.30
2019-04-16T12:11:48.190Z,25.97
2019-04-16T12:16:57.871Z,26.07
2019-04-16T12:22:31.474Z,31.10
2019-04-16T12:27:57.926Z,24.77
2019-04-16T12:33:32.126Z,25.00
2019-04-16T12:38:53.955Z,22.83
2019-04-16T12:44:25.345Z,23.50
2019-04-16T12:50:03.784Z,23.90
2019-04-16T13:01:53.837Z,20.20
2019-04-16T13:07:08.843Z,22.50
2019-04-16T13:12:42.683Z,20.67
2019-04-16T13:18:21.599Z,23.70
2019-04-16T13:23:36.240Z,22.27
2019-04-16T13:28:41.608Z,20.50
2019-04-16T13:33:50.665Z,22.27
2019-04-16T13:39:06.485Z,22.37
2019-04-16T13:44:17.101Z,22.67
2019-04-16T13:49:39.113Z,23.30
2019-04-16T13:55:12.898Z,20.00
2019-04-16T14:00:29.857Z,22.53
2019-04-16T14:05:37.485Z,19.87
2019-04-16T14:10:38.860Z,20.60
2019-04-16T14:15:44.844Z,22.20
2019-04-16T14:20:49.627Z,19.30
2019-04-16T14:25:55.378Z,20.03
2019-04-16T14:31:01.295Z,22.03
2019-04-16T14:36:07.356Z,23.63
2019-04-16T14:41:15.916Z,22.00
2019-04-16T14:46:19.926Z,20.70
2019-04-16T14:51:24.164Z,25.73
2019-04-16T14:56:43.591Z,24.63
2019-04-16T15:02:15.817Z,20.87
2019-04-16T15:07:33.081Z,25.23
2019-04-16T15:13:02.097Z,22.43
2019-04-16T15:18:44.818Z,20.57
2019-04-16T15:24:16.391Z,19.87
2019-04-16T15:29:52.572Z,21.00
2019-04-16T15:34:59.358Z,21.50
2019-04-16T15:40:10.647Z,18.33
2019-04-16T15:45:32.823Z,23.87
2019-04-16T15:51:07.752Z,20.20
2019-04-16T15:56:40.439Z,15.47
2019-04-16T16:02:04.006Z,20.90
2019-04-16T16:07:25.711Z,19.20
2019-04-16T16:12:32.278Z,19.27
2019-04-16T16:17:37.505Z,24.67
2019-04-16T16:22:42.964Z,22.80
2019-04-16T16:27:48.357Z,22.07
2019-04-16T16:32:53.295Z,25.87
2019-04-16T16:37:58.814Z,23.60
2019-04-16T16:43:08.199Z,17.73
2019-04-16T16:48:11.895Z,16.67
2019-04-16T16:53:47.341Z,18.60
2019-04-16T16:59:03.619Z,21.93
2019-04-16T17:04:22.989Z,15.13
2019-04-16T17:09:31.569Z,14.63
2019-04-16T17:14:37.976Z,13.90
2019-04-16T17:19:43.517Z,16.20
2019-04-16T17:24:49.166Z,15.00
2019-04-16T17:29:54.341Z,12.37
2019-04-16T17:34:59.712Z,14.40
2019-04-16T17:40:17.014Z,16.43
2019-04-16T17:45:57.206Z,14.87
2019-04-16T17:51:19.782Z,13.20
2019-04-16T17:56:43.301Z,13.73
2019-04-16T18:02:25.079Z,18.43
2019-04-16T18:07:48.531Z,12.80
2019-04-16T18:12:59.978Z,9.40
2019-04-16T18:18:16.958Z,11.57
2019-04-16T18:23:35.487Z,13.57
2019-04-16T18:28:55.222Z,10.67
2019-04-16T18:34:26.574Z,9.67
2019-04-16T18:39:42.189Z,9.97
2019-04-16T18:45:04.437Z,9.13
2019-04-16T18:50:15.118Z,7.07
2019-04-16T18:55:19.915Z,6.57
2019-04-16T19:00:37.932Z,5.97
2019-04-16T19:05:42.850Z,6.73
2019-04-16T19:10:48.384Z,5.40
2019-04-16T19:15:53.504Z,7.47
2019-04-16T19:20:58.927Z,7.37
2019-04-16T19:26:04.686Z,5.07
2019-04-16T19:31:09.859Z,5.20
2019-04-16T19:36:14.947Z,5.20
2019-04-16T19:41:23.314Z,5.57
2019-04-16T19:46:25.552Z,5.37
2019-04-16T19:51:30.081Z,5.20
2019-04-16T19:56:34.507Z,4.00
2019-04-16T20:01:39.319Z,6.07
2019-04-16T20:06:43.774Z,17.70
2019-04-16T20:11:48.829Z,3.87
2019-04-16T20:16:53.241Z,3.40
2019-04-16T20:21:57.623Z,4.03
2019-04-16T20:27:04.909Z,6.17
2019-04-16T20:32:10.184Z,3.67
2019-04-16T20:37:15.569Z,3.70
2019-04-16T20:42:21.154Z,4.00
2019-04-16T20:47:26.916Z,4.20
2019-04-16T20:52:34.189Z,4.43
2019-04-16T20:57:39.228Z,5.33
2019-04-16T21:02:44.778Z,5.80
2019-04-16T21:07:49.724Z,5.77
2019-04-16T21:12:55.562Z,5.20
2019-04-16T21:18:02.110Z,5.03
2019-04-16T21:23:07.274Z,6.10
2019-04-16T21:28:26.640Z,4.90
2019-04-16T21:33:46.128Z,4.80
2019-04-16T21:39:07.836Z,6.40
2019-04-16T21:44:14.608Z,5.20
2019-04-16T21:49:19.934Z,5.87
2019-04-16T21:54:26.892Z,5.60
2019-04-16T21:59:32.396Z,6.07
2019-04-16T22:04:38.176Z,5.30
2019-04-16T22:09:43.440Z,5.73
2019-04-16T22:14:50.951Z,5.73
2019-04-16T22:20:01.592Z,7.17
2019-04-16T22:25:03.588Z,6.13
2019-04-16T22:30:08.861Z,6.97
2019-04-16T22:35:14.416Z,7.30
2019-04-16T22:40:37.469Z,5.67
2019-04-16T22:45:56.887Z,7.53
2019-04-16T22:51:01.863Z,7.20
2019-04-16T22:56:05.875Z,10.17
2019-04-16T23:01:10.095Z,9.63
2019-04-16T23:06:14.262Z,8.60
2019-04-16T23:11:23.366Z,12.90
2019-04-16T23:16:23.960Z,14.13
2019-04-16T23:21:28.131Z,10.93
2019-04-16T23:26:33.293Z,9.80
2019-04-16T23:31:37.699Z,7.53
2019-04-16T23:36:40.984Z,9.43
2019-04-16T23:41:47.955Z,13.43
2019-04-16T23:47:11.918Z,9.33
2019-04-16T23:52:35.335Z,7.50
2019-04-16T23:57:59.144Z,7.40
